sensor_id;sensor_type;location;lat;lon;timestamp;pressure;altitude;pressure_sealevel;temperature;humidity
30708;BME280;17458;48.958;8.284;2023-05-07T00:02:42;100180.22;;;17.34;68.55
30708;BME280;17458;48.958;8.284;2023-05-07T00:05:26;100188.78;;;17.16;68.83
30708;BME280;17458;48.958;8.284;2023-05-07T00:08:10;100179.06;;;17.21;68.70
30708;BME280;17458;48.958;8.284;2023-05-07T00:10:55;100175.75;;;17.34;68.05
30708;BME280;17458;48.958;8.284;2023-05-07T00:13:39;100175.94;;;17.45;67.86
30708;BME280;17458;48.958;8.284;2023-05-07T00:16:23;100178.47;;;17.36;67.75
30708;BME280;17458;48.958;8.284;2023-05-07T00:19:06;100175.13;;;17.48;67.32
30708;BME280;17458;48.958;8.284;2023-05-07T00:21:50;100168.63;;;17.36;67.58
30708;BME280;17458;48.958;8.284;2023-05-07T00:24:37;100172.38;;;17.46;67.38
30708;BME280;17458;48.958;8.284;2023-05-07T00:27:21;100174.94;;;17.39;67.69
30708;BME280;17458;48.958;8.284;2023-05-07T00:30:06;100172.44;;;17.48;67.46
30708;BME280;17458;48.958;8.284;2023-05-07T00:32:51;100175.44;;;17.19;68.17
30708;BME280;17458;48.958;8.284;2023-05-07T00:35:35;100173.63;;;17.18;68.04
30708;BME280;17458;48.958;8.284;2023-05-07T00:38:19;100169.06;;;17.14;68.50
30708;BME280;17458;48.958;8.284;2023-05-07T00:41:03;100154.28;;;16.91;69.42
30708;BME280;17458;48.958;8.284;2023-05-07T00:43:47;100154.41;;;16.97;69.06
30708;BME280;17458;48.958;8.284;2023-05-07T00:46:32;100158.09;;;17.04;68.93
30708;BME280;17458;48.958;8.284;2023-05-07T00:49:16;100159.09;;;17.07;68.50
30708;BME280;17458;48.958;8.284;2023-05-07T00:52:02;100149.16;;;17.03;68.63
30708;BME280;17458;48.958;8.284;2023-05-07T00:54:47;100161.44;;;16.92;68.84
30708;BME280;17458;48.958;8.284;2023-05-07T00:57:37;100164.16;;;16.93;69.05
30708;BME280;17458;48.958;8.284;2023-05-07T01:00:23;100158.97;;;16.62;69.68
30708;BME280;17458;48.958;8.284;2023-05-07T01:03:08;100151.25;;;16.76;69.42
30708;BME280;17458;48.958;8.284;2023-05-07T01:05:56;100161.31;;;16.86;69.11
30708;BME280;17458;48.958;8.284;2023-05-07T01:08:44;100158.81;;;16.93;69.04
30708;BME280;17458;48.958;8.284;2023-05-07T01:11:28;100158.28;;;16.69;70.17
30708;BME280;17458;48.958;8.284;2023-05-07T01:14:16;100155.09;;;16.88;69.35
30708;BME280;17458;48.958;8.284;2023-05-07T01:17:00;100153.25;;;16.86;69.63
30708;BME280;17458;48.958;8.284;2023-05-07T01:19:45;100159.78;;;16.97;68.91
30708;BME280;17458;48.958;8.284;2023-05-07T01:22:31;100159.75;;;16.95;69.05
30708;BME280;17458;48.958;8.284;2023-05-07T01:25:16;100158.19;;;17.07;68.23
30708;BME280;17458;48.958;8.284;2023-05-07T01:28:05;100167.09;;;17.06;68.03
30708;BME280;17458;48.958;8.284;2023-05-07T01:30:54;100162.88;;;17.18;67.84
30708;BME280;17458;48.958;8.284;2023-05-07T01:33:41;100161.81;;;17.09;67.86
30708;BME280;17458;48.958;8.284;2023-05-07T01:36:29;100154.28;;;16.91;68.66
30708;BME280;17458;48.958;8.284;2023-05-07T01:39:14;100160.06;;;16.69;69.30
30708;BME280;17458;48.958;8.284;2023-05-07T01:41:59;100159.13;;;17.09;68.23
30708;BME280;17458;48.958;8.284;2023-05-07T01:44:46;100157.78;;;16.88;68.68
30708;BME280;17458;48.958;8.284;2023-05-07T01:47:32;100157.94;;;16.94;68.76
30708;BME280;17458;48.958;8.284;2023-05-07T01:50:18;100162.97;;;16.79;69.28
30708;BME280;17458;48.958;8.284;2023-05-07T01:53:11;100175.00;;;16.98;68.60
30708;BME280;17458;48.958;8.284;2023-05-07T01:55:56;100165.75;;;16.84;69.12
30708;BME280;17458;48.958;8.284;2023-05-07T01:58:41;100166.06;;;16.99;68.77
30708;BME280;17458;48.958;8.284;2023-05-07T02:01:25;100166.97;;;16.98;68.62
30708;BME280;17458;48.958;8.284;2023-05-07T02:04:10;100163.16;;;16.88;69.21
30708;BME280;17458;48.958;8.284;2023-05-07T02:06:55;100160.50;;;16.90;68.88
30708;BME280;17458;48.958;8.284;2023-05-07T02:09:40;100159.53;;;16.86;69.08
30708;BME280;17458;48.958;8.284;2023-05-07T02:12:24;100165.88;;;16.90;68.79
30708;BME280;17458;48.958;8.284;2023-05-07T02:15:09;100167.41;;;16.79;69.32
30708;BME280;17458;48.958;8.284;2023-05-07T02:18:04;100178.31;;;16.86;69.42
30708;BME280;17458;48.958;8.284;2023-05-07T02:20:49;100174.09;;;16.60;70.26
30708;BME280;17458;48.958;8.284;2023-05-07T02:23:33;100169.69;;;16.62;70.20
30708;BME280;17458;48.958;8.284;2023-05-07T02:26:18;100168.66;;;16.55;70.33
30708;BME280;17458;48.958;8.284;2023-05-07T02:29:03;100176.22;;;16.73;69.91
30708;BME280;17458;48.958;8.284;2023-05-07T02:31:50;100170.97;;;16.78;69.63
30708;BME280;17458;48.958;8.284;2023-05-07T02:34:36;100173.22;;;16.61;70.47
30708;BME280;17458;48.958;8.284;2023-05-07T02:37:26;100165.50;;;16.73;70.17
30708;BME280;17458;48.958;8.284;2023-05-07T02:40:11;100167.34;;;16.76;69.82
30708;BME280;17458;48.958;8.284;2023-05-07T02:42:58;100162.06;;;16.79;69.57
30708;BME280;17458;48.958;8.284;2023-05-07T02:46:00;100161.00;;;16.72;69.80
30708;BME280;17458;48.958;8.284;2023-05-07T02:48:48;100162.06;;;16.41;70.73
30708;BME280;17458;48.958;8.284;2023-05-07T02:51:33;100154.81;;;16.37;71.32
30708;BME280;17458;48.958;8.284;2023-05-07T02:54:27;100152.38;;;16.48;71.09
30708;BME280;17458;48.958;8.284;2023-05-07T02:57:14;100155.03;;;16.46;70.51
30708;BME280;17458;48.958;8.284;2023-05-07T02:59:58;100141.78;;;16.52;70.43
30708;BME280;17458;48.958;8.284;2023-05-07T03:02:49;100143.28;;;16.40;70.71
30708;BME280;17458;48.958;8.284;2023-05-07T03:05:39;100146.03;;;16.44;70.78
30708;BME280;17458;48.958;8.284;2023-05-07T03:08:24;100143.69;;;16.20;71.23
30708;BME280;17458;48.958;8.284;2023-05-07T03:11:08;100143.91;;;16.28;71.05
30708;BME280;17458;48.958;8.284;2023-05-07T03:13:52;100144.22;;;16.43;70.29
30708;BME280;17458;48.958;8.284;2023-05-07T03:16:41;100146.94;;;16.45;70.08
30708;BME280;17458;48.958;8.284;2023-05-07T03:19:25;100138.84;;;16.43;70.28
30708;BME280;17458;48.958;8.284;2023-05-07T03:22:09;100137.78;;;16.35;70.54
30708;BME280;17458;48.958;8.284;2023-05-07T03:24:53;100145.47;;;16.20;71.15
30708;BME280;17458;48.958;8.284;2023-05-07T03:27:37;100146.53;;;16.26;71.11
30708;BME280;17458;48.958;8.284;2023-05-07T03:30:22;100146.69;;;16.34;70.65
30708;BME280;17458;48.958;8.284;2023-05-07T03:33:06;100148.19;;;16.21;71.05
30708;BME280;17458;48.958;8.284;2023-05-07T03:35:50;100150.03;;;16.24;71.11
30708;BME280;17458;48.958;8.284;2023-05-07T03:38:40;100142.09;;;16.27;70.98
30708;BME280;17458;48.958;8.284;2023-05-07T03:41:24;100148.34;;;16.29;71.08
30708;BME280;17458;48.958;8.284;2023-05-07T03:44:09;100147.75;;;16.41;70.68
30708;BME280;17458;48.958;8.284;2023-05-07T03:46:54;100157.63;;;16.42;70.24
30708;BME280;17458;48.958;8.284;2023-05-07T03:49:39;100159.41;;;16.41;70.09
30708;BME280;17458;48.958;8.284;2023-05-07T03:52:23;100158.44;;;16.39;70.16
30708;BME280;17458;48.958;8.284;2023-05-07T03:55:11;100153.91;;;16.37;70.20
30708;BME280;17458;48.958;8.284;2023-05-07T03:57:57;100152.59;;;16.19;71.04
30708;BME280;17458;48.958;8.284;2023-05-07T04:00:44;100160.22;;;16.03;71.90
30708;BME280;17458;48.958;8.284;2023-05-07T04:03:38;100165.81;;;16.12;71.61
30708;BME280;17458;48.958;8.284;2023-05-07T04:06:23;100167.22;;;15.96;71.99
30708;BME280;17458;48.958;8.284;2023-05-07T04:09:07;100168.91;;;15.92;72.57
30708;BME280;17458;48.958;8.284;2023-05-07T04:11:52;100174.13;;;15.88;72.68
30708;BME280;17458;48.958;8.284;2023-05-07T04:14:36;100171.44;;;15.88;72.86
30708;BME280;17458;48.958;8.284;2023-05-07T04:17:21;100163.84;;;16.05;71.97
30708;BME280;17458;48.958;8.284;2023-05-07T04:20:05;100160.94;;;15.95;72.62
30708;BME280;17458;48.958;8.284;2023-05-07T04:22:52;100163.22;;;15.80;72.74
30708;BME280;17458;48.958;8.284;2023-05-07T04:25:36;100160.78;;;15.89;72.59
30708;BME280;17458;48.958;8.284;2023-05-07T04:28:27;100159.44;;;16.07;72.28
30708;BME280;17458;48.958;8.284;2023-05-07T04:31:11;100163.03;;;16.07;72.07
30708;BME280;17458;48.958;8.284;2023-05-07T04:33:57;100165.53;;;16.00;72.36
30708;BME280;17458;48.958;8.284;2023-05-07T04:36:41;100173.25;;;15.89;73.08
30708;BME280;17458;48.958;8.284;2023-05-07T04:39:28;100174.56;;;15.70;73.50
30708;BME280;17458;48.958;8.284;2023-05-07T04:42:17;100167.72;;;15.81;73.71
30708;BME280;17458;48.958;8.284;2023-05-07T04:45:02;100174.69;;;16.09;72.40
30708;BME280;17458;48.958;8.284;2023-05-07T04:47:49;100174.31;;;16.31;71.44
30708;BME280;17458;48.958;8.284;2023-05-07T04:50:34;100179.47;;;16.22;71.35
30708;BME280;17458;48.958;8.284;2023-05-07T04:53:20;100189.75;;;16.40;70.93
30708;BME280;17458;48.958;8.284;2023-05-07T04:56:06;100192.00;;;16.61;70.12
30708;BME280;17458;48.958;8.284;2023-05-07T04:58:57;100186.91;;;16.70;69.89
30708;BME280;17458;48.958;8.284;2023-05-07T05:01:41;100198.38;;;16.64;69.42
30708;BME280;17458;48.958;8.284;2023-05-07T05:04:25;100197.81;;;16.79;69.41
30708;BME280;17458;48.958;8.284;2023-05-07T05:07:10;100200.94;;;16.97;68.81
30708;BME280;17458;48.958;8.284;2023-05-07T05:09:54;100211.13;;;17.15;68.51
30708;BME280;17458;48.958;8.284;2023-05-07T05:12:40;100201.84;;;16.99;68.50
30708;BME280;17458;48.958;8.284;2023-05-07T05:15:24;100208.66;;;17.24;67.85
30708;BME280;17458;48.958;8.284;2023-05-07T05:18:10;100200.38;;;17.15;67.67
30708;BME280;17458;48.958;8.284;2023-05-07T05:20:54;100207.88;;;17.31;67.39
30708;BME280;17458;48.958;8.284;2023-05-07T05:23:39;100210.97;;;17.08;68.02
30708;BME280;17458;48.958;8.284;2023-05-07T05:26:23;100211.03;;;16.72;69.47
30708;BME280;17458;48.958;8.284;2023-05-07T05:29:07;100219.09;;;16.70;69.80
30708;BME280;17458;48.958;8.284;2023-05-07T05:31:51;100222.06;;;16.84;69.66
30708;BME280;17458;48.958;8.284;2023-05-07T05:34:36;100219.69;;;16.97;68.71
30708;BME280;17458;48.958;8.284;2023-05-07T05:37:22;100228.97;;;17.13;68.15
30708;BME280;17458;48.958;8.284;2023-05-07T05:40:07;100231.94;;;17.67;66.54
30708;BME280;17458;48.958;8.284;2023-05-07T05:42:52;100223.22;;;17.37;67.19
30708;BME280;17458;48.958;8.284;2023-05-07T05:45:37;100226.69;;;17.75;66.71
30708;BME280;17458;48.958;8.284;2023-05-07T05:48:21;100229.31;;;17.72;66.19
30708;BME280;17458;48.958;8.284;2023-05-07T05:51:06;100235.09;;;17.93;65.80
30708;BME280;17458;48.958;8.284;2023-05-07T05:53:50;100226.09;;;17.91;65.92
30708;BME280;17458;48.958;8.284;2023-05-07T05:56:34;100228.16;;;18.06;65.48
30708;BME280;17458;48.958;8.284;2023-05-07T05:59:19;100233.22;;;18.40;64.54
30708;BME280;17458;48.958;8.284;2023-05-07T06:02:04;100214.94;;;18.18;64.65
30708;BME280;17458;48.958;8.284;2023-05-07T06:04:49;100213.81;;;18.05;65.52
30708;BME280;17458;48.958;8.284;2023-05-07T06:07:36;100218.28;;;18.05;65.32
30708;BME280;17458;48.958;8.284;2023-05-07T06:10:20;100210.13;;;18.00;65.94
30708;BME280;17458;48.958;8.284;2023-05-07T06:13:04;100212.63;;;17.88;65.97
30708;BME280;17458;48.958;8.284;2023-05-07T06:15:49;100209.97;;;18.44;64.66
30708;BME280;17458;48.958;8.284;2023-05-07T06:18:33;100215.06;;;18.27;65.14
30708;BME280;17458;48.958;8.284;2023-05-07T06:21:20;100218.47;;;18.68;64.24
30708;BME280;17458;48.958;8.284;2023-05-07T06:24:04;100219.75;;;18.96;62.87
30708;BME280;17458;48.958;8.284;2023-05-07T06:26:48;100235.91;;;18.96;62.48
30708;BME280;17458;48.958;8.284;2023-05-07T06:29:32;100249.97;;;19.40;62.03
30708;BME280;17458;48.958;8.284;2023-05-07T06:32:18;100254.22;;;19.91;60.20
30708;BME280;17458;48.958;8.284;2023-05-07T06:35:03;100250.50;;;19.83;59.78
30708;BME280;17458;48.958;8.284;2023-05-07T06:37:47;100256.31;;;20.23;59.03
30708;BME280;17458;48.958;8.284;2023-05-07T06:40:36;100260.78;;;20.17;58.92
30708;BME280;17458;48.958;8.284;2023-05-07T06:43:20;100261.75;;;20.27;59.00
30708;BME280;17458;48.958;8.284;2023-05-07T06:46:11;100247.94;;;19.95;58.81
30708;BME280;17458;48.958;8.284;2023-05-07T06:48:56;100251.03;;;19.52;59.51
30708;BME280;17458;48.958;8.284;2023-05-07T06:51:41;100244.88;;;18.95;60.76
30708;BME280;17458;48.958;8.284;2023-05-07T06:54:25;100242.81;;;19.42;60.59
30708;BME280;17458;48.958;8.284;2023-05-07T06:57:10;100237.16;;;19.94;58.95
30708;BME280;17458;48.958;8.284;2023-05-07T06:59:54;100231.25;;;20.34;58.73
30708;BME280;17458;48.958;8.284;2023-05-07T07:02:39;100244.78;;;20.37;59.22
30708;BME280;17458;48.958;8.284;2023-05-07T07:05:24;100244.38;;;19.98;58.45
30708;BME280;17458;48.958;8.284;2023-05-07T07:08:09;100260.50;;;20.92;57.78
30708;BME280;17458;48.958;8.284;2023-05-07T07:10:54;100263.47;;;21.30;57.08
30708;BME280;17458;48.958;8.284;2023-05-07T07:13:38;100282.44;;;21.40;56.98
30708;BME280;17458;48.958;8.284;2023-05-07T07:16:23;100298.56;;;21.25;56.82
30708;BME280;17458;48.958;8.284;2023-05-07T07:19:09;100307.22;;;20.81;58.87
30708;BME280;17458;48.958;8.284;2023-05-07T07:21:53;100298.97;;;20.65;59.69
30708;BME280;17458;48.958;8.284;2023-05-07T07:24:37;100289.94;;;20.58;60.80
30708;BME280;17458;48.958;8.284;2023-05-07T07:27:24;100270.84;;;20.37;58.90
30708;BME280;17458;48.958;8.284;2023-05-07T07:30:08;100272.69;;;20.41;58.40
30708;BME280;17458;48.958;8.284;2023-05-07T07:32:55;100285.59;;;20.78;57.86
30708;BME280;17458;48.958;8.284;2023-05-07T07:35:45;100311.72;;;20.81;58.37
30708;BME280;17458;48.958;8.284;2023-05-07T07:38:29;100300.91;;;20.76;59.90
30708;BME280;17458;48.958;8.284;2023-05-07T07:41:13;100272.19;;;19.91;60.56
30708;BME280;17458;48.958;8.284;2023-05-07T07:43:58;100281.00;;;20.65;58.51
30708;BME280;17458;48.958;8.284;2023-05-07T07:46:42;100300.09;;;20.94;57.72
30708;BME280;17458;48.958;8.284;2023-05-07T07:49:27;100295.63;;;20.95;58.73
30708;BME280;17458;48.958;8.284;2023-05-07T07:52:12;100302.97;;;21.17;58.52
30708;BME280;17458;48.958;8.284;2023-05-07T07:54:58;100298.69;;;21.51;57.70
30708;BME280;17458;48.958;8.284;2023-05-07T07:57:43;100290.78;;;22.04;55.05
30708;BME280;17458;48.958;8.284;2023-05-07T08:00:27;100299.00;;;22.53;53.71
30708;BME280;17458;48.958;8.284;2023-05-07T08:03:13;100311.66;;;22.57;52.26
30708;BME280;17458;48.958;8.284;2023-05-07T08:06:03;100303.50;;;22.36;53.51
30708;BME280;17458;48.958;8.284;2023-05-07T08:08:48;100299.00;;;22.65;51.41
30708;BME280;17458;48.958;8.284;2023-05-07T08:11:34;100310.75;;;23.02;51.81
30708;BME280;17458;48.958;8.284;2023-05-07T08:14:20;100314.38;;;23.00;53.25
30708;BME280;17458;48.958;8.284;2023-05-07T08:17:06;100312.56;;;23.05;52.32
30708;BME280;17458;48.958;8.284;2023-05-07T08:19:51;100312.56;;;23.12;51.66
30708;BME280;17458;48.958;8.284;2023-05-07T08:22:36;100310.69;;;23.37;51.21
30708;BME280;17458;48.958;8.284;2023-05-07T08:25:20;100312.50;;;23.58;51.33
30708;BME280;17458;48.958;8.284;2023-05-07T08:28:05;100313.47;;;23.16;51.79
30708;BME280;17458;48.958;8.284;2023-05-07T08:30:49;100312.56;;;22.57;54.35
30708;BME280;17458;48.958;8.284;2023-05-07T08:33:33;100309.84;;;22.62;52.99
30708;BME280;17458;48.958;8.284;2023-05-07T08:36:17;100311.66;;;23.10;52.29
30708;BME280;17458;48.958;8.284;2023-05-07T08:39:03;100312.56;;;22.94;53.40
30708;BME280;17458;48.958;8.284;2023-05-07T08:41:52;100307.97;;;23.54;49.62
30708;BME280;17458;48.958;8.284;2023-05-07T08:44:39;100313.31;;;23.74;50.31
30708;BME280;17458;48.958;8.284;2023-05-07T08:47:28;100310.50;;;23.99;49.61
30708;BME280;17458;48.958;8.284;2023-05-07T08:50:14;100316.47;;;24.58;49.87
30708;BME280;17458;48.958;8.284;2023-05-07T08:52:59;100316.47;;;24.58;50.14
30708;BME280;17458;48.958;8.284;2023-05-07T08:55:46;100316.91;;;23.79;50.32
30708;BME280;17458;48.958;8.284;2023-05-07T08:58:31;100311.50;;;23.76;51.45
30708;BME280;17458;48.958;8.284;2023-05-07T09:01:17;100308.69;;;23.95;51.37
30708;BME280;17458;48.958;8.284;2023-05-07T09:04:05;100310.66;;;23.46;49.85
30708;BME280;17458;48.958;8.284;2023-05-07T09:06:51;100305.09;;;23.87;51.43
30708;BME280;17458;48.958;8.284;2023-05-07T09:09:37;100308.56;;;24.17;51.42
30708;BME280;17458;48.958;8.284;2023-05-07T09:12:22;100312.09;;;24.37;49.41
30708;BME280;17458;48.958;8.284;2023-05-07T09:15:07;100303.00;;;24.43;49.71
30708;BME280;17458;48.958;8.284;2023-05-07T09:17:52;100316.06;;;23.67;50.70
30708;BME280;17458;48.958;8.284;2023-05-07T09:20:37;100301.53;;;23.76;51.51
30708;BME280;17458;48.958;8.284;2023-05-07T09:23:22;100297.50;;;24.56;50.84
30708;BME280;17458;48.958;8.284;2023-05-07T09:26:06;100302.88;;;24.59;48.71
30708;BME280;17458;48.958;8.284;2023-05-07T09:28:56;100309.06;;;24.78;49.44
30708;BME280;17458;48.958;8.284;2023-05-07T09:31:41;100299.91;;;24.88;47.72
30708;BME280;17458;48.958;8.284;2023-05-07T09:34:29;100302.69;;;24.84;46.78
30708;BME280;17458;48.958;8.284;2023-05-07T09:37:14;100299.94;;;24.87;47.94
30708;BME280;17458;48.958;8.284;2023-05-07T09:39:58;100304.84;;;25.41;46.47
30708;BME280;17458;48.958;8.284;2023-05-07T09:42:49;100302.47;;;25.11;47.93
30708;BME280;17458;48.958;8.284;2023-05-07T09:45:36;100294.88;;;25.42;47.20
30708;BME280;17458;48.958;8.284;2023-05-07T09:48:20;100293.81;;;25.55;46.13
30708;BME280;17458;48.958;8.284;2023-05-07T09:54:04;100296.81;;;25.31;45.58
30708;BME280;17458;48.958;8.284;2023-05-07T09:56:52;100293.16;;;25.33;45.52
30708;BME280;17458;48.958;8.284;2023-05-07T09:59:42;100296.50;;;25.61;47.11
30708;BME280;17458;48.958;8.284;2023-05-07T10:02:30;100291.91;;;25.68;44.41
30708;BME280;17458;48.958;8.284;2023-05-07T10:05:15;100290.28;;;26.19;43.26
30708;BME280;17458;48.958;8.284;2023-05-07T10:08:00;100282.91;;;25.58;43.31
30708;BME280;17458;48.958;8.284;2023-05-07T10:10:45;100280.47;;;26.07;43.12
30708;BME280;17458;48.958;8.284;2023-05-07T10:13:34;100281.09;;;26.29;43.50
30708;BME280;17458;48.958;8.284;2023-05-07T10:16:27;100279.03;;;25.81;43.38
30708;BME280;17458;48.958;8.284;2023-05-07T10:19:12;100282.06;;;26.24;42.92
30708;BME280;17458;48.958;8.284;2023-05-07T10:22:05;100283.69;;;25.69;41.76
30708;BME280;17458;48.958;8.284;2023-05-07T10:24:53;100285.09;;;26.01;41.49
30708;BME280;17458;48.958;8.284;2023-05-07T10:27:39;100290.72;;;25.89;43.95
30708;BME280;17458;48.958;8.284;2023-05-07T10:33:19;100282.53;;;25.89;43.14
30708;BME280;17458;48.958;8.284;2023-05-07T10:36:05;100273.88;;;26.24;42.72
30708;BME280;17458;48.958;8.284;2023-05-07T10:38:51;100268.19;;;26.40;43.22
30708;BME280;17458;48.958;8.284;2023-05-07T10:41:35;100274.81;;;26.79;42.84
30708;BME280;17458;48.958;8.284;2023-05-07T10:44:28;100271.97;;;26.32;43.45
30708;BME280;17458;48.958;8.284;2023-05-07T10:47:16;100267.56;;;26.80;43.86
30708;BME280;17458;48.958;8.284;2023-05-07T11:02:07;100263.97;;;26.20;43.02
30708;BME280;17458;48.958;8.284;2023-05-07T11:05:23;100259.44;;;26.75;42.53
30708;BME280;17458;48.958;8.284;2023-05-07T11:08:19;100252.66;;;27.01;42.44
30708;BME280;17458;48.958;8.284;2023-05-07T11:11:46;100248.47;;;26.80;43.56
30708;BME280;17458;48.958;8.284;2023-05-07T11:14:50;100246.69;;;27.28;41.84
30708;BME280;17458;48.958;8.284;2023-05-07T11:17:54;100252.34;;;27.64;42.18
30708;BME280;17458;48.958;8.284;2023-05-07T11:20:48;100251.31;;;27.69;40.91
30708;BME280;17458;48.958;8.284;2023-05-07T11:26:44;100255.16;;;27.61;43.57
30708;BME280;17458;48.958;8.284;2023-05-07T11:29:29;100258.13;;;27.92;41.38
30708;BME280;17458;48.958;8.284;2023-05-07T11:32:28;100254.91;;;27.71;41.55
30708;BME280;17458;48.958;8.284;2023-05-07T11:35:15;100253.59;;;28.31;41.03
30708;BME280;17458;48.958;8.284;2023-05-07T11:38:00;100255.41;;;28.30;38.97
30708;BME280;17458;48.958;8.284;2023-05-07T11:40:52;100254.78;;;28.19;39.07
30708;BME280;17458;48.958;8.284;2023-05-07T11:43:37;100250.09;;;27.82;41.03
30708;BME280;17458;48.958;8.284;2023-05-07T11:46:21;100252.84;;;27.82;42.60
30708;BME280;17458;48.958;8.284;2023-05-07T11:49:05;100255.47;;;27.42;42.57
30708;BME280;17458;48.958;8.284;2023-05-07T11:51:49;100251.66;;;27.94;40.88
30708;BME280;17458;48.958;8.284;2023-05-07T11:54:37;100253.22;;;28.07;41.45
30708;BME280;17458;48.958;8.284;2023-05-07T11:57:22;100246.50;;;26.88;41.13
30708;BME280;17458;48.958;8.284;2023-05-07T12:00:07;100254.13;;;28.06;41.26
30708;BME280;17458;48.958;8.284;2023-05-07T12:03:03;100261.94;;;28.62;40.16
30708;BME280;17458;48.958;8.284;2023-05-07T12:05:48;100254.84;;;28.53;39.78
30708;BME280;17458;48.958;8.284;2023-05-07T12:08:32;100254.25;;;28.77;39.46
30708;BME280;17458;48.958;8.284;2023-05-07T12:11:22;100242.66;;;28.31;40.21
30708;BME280;17458;48.958;8.284;2023-05-07T12:14:07;100239.66;;;28.41;40.93
30708;BME280;17458;48.958;8.284;2023-05-07T12:16:51;100244.09;;;28.47;40.38
30708;BME280;17458;48.958;8.284;2023-05-07T12:19:36;100244.78;;;28.55;40.23
30708;BME280;17458;48.958;8.284;2023-05-07T12:22:22;100248.44;;;28.91;38.36
30708;BME280;17458;48.958;8.284;2023-05-07T12:25:06;100246.22;;;27.51;40.81
30708;BME280;17458;48.958;8.284;2023-05-07T12:27:53;100236.94;;;28.01;41.44
30708;BME280;17458;48.958;8.284;2023-05-07T12:30:38;100241.75;;;28.30;41.21
30708;BME280;17458;48.958;8.284;2023-05-07T12:33:26;100232.38;;;28.03;42.32
30708;BME280;17458;48.958;8.284;2023-05-07T12:36:13;100245.47;;;28.28;41.31
30708;BME280;17458;48.958;8.284;2023-05-07T12:38:57;100246.84;;;28.45;41.49
30708;BME280;17458;48.958;8.284;2023-05-07T12:41:57;100250.56;;;28.43;41.08
30708;BME280;17458;48.958;8.284;2023-05-07T12:44:45;100252.63;;;28.33;42.34
30708;BME280;17458;48.958;8.284;2023-05-07T12:47:29;100248.94;;;27.94;42.40
30708;BME280;17458;48.958;8.284;2023-05-07T12:50:14;100247.56;;;27.75;43.54
30708;BME280;17458;48.958;8.284;2023-05-07T12:52:59;100246.38;;;27.86;43.19
30708;BME280;17458;48.958;8.284;2023-05-07T12:56:01;100252.06;;;27.77;45.25
30708;BME280;17458;48.958;8.284;2023-05-07T12:58:48;100248.13;;;27.91;43.29
30708;BME280;17458;48.958;8.284;2023-05-07T13:01:34;100259.91;;;27.49;42.79
30708;BME280;17458;48.958;8.284;2023-05-07T13:04:18;100262.72;;;27.43;42.18
30708;BME280;17458;48.958;8.284;2023-05-07T13:07:02;100255.53;;;26.92;42.90
30708;BME280;17458;48.958;8.284;2023-05-07T13:09:46;100251.56;;;27.56;42.50
30708;BME280;17458;48.958;8.284;2023-05-07T13:12:32;100246.75;;;27.70;42.94
30708;BME280;17458;48.958;8.284;2023-05-07T13:15:16;100251.44;;;28.05;41.83
30708;BME280;17458;48.958;8.284;2023-05-07T13:18:00;100247.16;;;28.33;43.69
30708;BME280;17458;48.958;8.284;2023-05-07T13:20:44;100249.31;;;28.19;43.66
30708;BME280;17458;48.958;8.284;2023-05-07T13:23:28;100243.88;;;27.77;44.17
30708;BME280;17458;48.958;8.284;2023-05-07T13:26:12;100244.03;;;28.10;41.39
30708;BME280;17458;48.958;8.284;2023-05-07T13:28:56;100246.56;;;27.79;42.83
30708;BME280;17458;48.958;8.284;2023-05-07T13:31:40;100246.94;;;28.02;42.04
30708;BME280;17458;48.958;8.284;2023-05-07T13:34:28;100244.16;;;27.65;43.43
30708;BME280;17458;48.958;8.284;2023-05-07T13:37:12;100244.63;;;27.39;43.01
30708;BME280;17458;48.958;8.284;2023-05-07T13:39:56;100247.53;;;27.76;43.01
30708;BME280;17458;48.958;8.284;2023-05-07T13:42:40;100242.66;;;27.47;43.58
30708;BME280;17458;48.958;8.284;2023-05-07T13:45:25;100247.69;;;28.09;43.05
30708;BME280;17458;48.958;8.284;2023-05-07T13:48:09;100246.41;;;27.42;43.54
30708;BME280;17458;48.958;8.284;2023-05-07T13:50:53;100240.84;;;27.91;44.46
30708;BME280;17458;48.958;8.284;2023-05-07T13:53:37;100238.72;;;27.64;44.49
30708;BME280;17458;48.958;8.284;2023-05-07T13:56:21;100240.78;;;27.05;44.26
30708;BME280;17458;48.958;8.284;2023-05-07T13:59:05;100238.44;;;26.28;45.91
30708;BME280;17458;48.958;8.284;2023-05-07T14:01:49;100247.34;;;26.39;46.20
30708;BME280;17458;48.958;8.284;2023-05-07T14:04:33;100242.34;;;26.09;46.48
30708;BME280;17458;48.958;8.284;2023-05-07T14:07:17;100253.13;;;26.15;46.71
30708;BME280;17458;48.958;8.284;2023-05-07T14:10:01;100257.16;;;26.51;47.37
30708;BME280;17458;48.958;8.284;2023-05-07T14:12:46;100258.41;;;26.29;48.97
30708;BME280;17458;48.958;8.284;2023-05-07T14:15:32;100260.97;;;25.75;48.68
30708;BME280;17458;48.958;8.284;2023-05-07T14:18:16;100269.28;;;25.60;48.65
30708;BME280;17458;48.958;8.284;2023-05-07T14:21:00;100259.28;;;25.65;49.50
30708;BME280;17458;48.958;8.284;2023-05-07T14:23:44;100259.47;;;26.16;47.33
30708;BME280;17458;48.958;8.284;2023-05-07T14:26:28;100253.13;;;26.15;47.07
30708;BME280;17458;48.958;8.284;2023-05-07T14:29:13;100253.13;;;26.15;46.43
30708;BME280;17458;48.958;8.284;2023-05-07T14:31:59;100262.78;;;25.74;43.79
30708;BME280;17458;48.958;8.284;2023-05-07T14:34:43;100262.41;;;26.02;43.34
30708;BME280;17458;48.958;8.284;2023-05-07T14:37:27;100256.38;;;25.78;43.62
30708;BME280;17458;48.958;8.284;2023-05-07T14:40:11;100262.31;;;25.39;44.62
30708;BME280;17458;48.958;8.284;2023-05-07T14:42:55;100259.03;;;25.83;44.46
30708;BME280;17458;48.958;8.284;2023-05-07T14:45:40;100260.19;;;25.65;44.89
30708;BME280;17458;48.958;8.284;2023-05-07T14:48:24;100268.59;;;25.41;45.10
30708;BME280;17458;48.958;8.284;2023-05-07T14:51:08;100259.31;;;25.62;46.02